Schedule Details


Flight Number: CTN320
Departure: Franjo Tudman (LDZA) at 08:30
Arrival: Ruzyne (LKPR) at 09:50
Route: PETOV DCT TISKO DCT OKF M725 TABEM Z401 VLM

Weather Information
LDZA 190900Z VRB01KT CAVOK 08/02 Q1022 NOSIG
LKPR 190906Z 20015G25KT 9999 FEW028 05/00 Q1014 RMK REG QNH 1011
Schedule Frequency

Route Map